sensor_id;sensor_type;location;lat;lon;timestamp;P1;durP1;ratioP1;P2;durP2;ratioP2
63534;SDS011;55128;50.230;18.944;2023-02-03T00:01:02;9.95;;;4.28;;
63534;SDS011;55128;50.230;18.944;2023-02-03T00:06:03;7.47;;;3.72;;
63534;SDS011;55128;50.230;18.944;2023-02-03T00:11:03;9.48;;;4.15;;
63534;SDS011;55128;50.230;18.944;2023-02-03T00:16:04;11.13;;;4.20;;
63534;SDS011;55128;50.230;18.944;2023-02-03T00:21:05;7.07;;;4.03;;
63534;SDS011;55128;50.230;18.944;2023-02-03T00:26:10;7.00;;;3.58;;
63534;SDS011;55128;50.230;18.944;2023-02-03T00:31:16;8.10;;;4.20;;
63534;SDS011;55128;50.230;18.944;2023-02-03T00:36:17;8.68;;;3.78;;
63534;SDS011;55128;50.230;18.944;2023-02-03T00:41:19;9.10;;;3.72;;
63534;SDS011;55128;50.230;18.944;2023-02-03T00:46:20;7.40;;;3.17;;
63534;SDS011;55128;50.230;18.944;2023-02-03T00:51:20;6.53;;;3.08;;
63534;SDS011;55128;50.230;18.944;2023-02-03T00:56:21;7.68;;;3.63;;
63534;SDS011;55128;50.230;18.944;2023-02-03T01:01:21;6.63;;;3.13;;
63534;SDS011;55128;50.230;18.944;2023-02-03T01:06:22;5.70;;;2.80;;
63534;SDS011;55128;50.230;18.944;2023-02-03T01:11:24;6.25;;;2.85;;
63534;SDS011;55128;50.230;18.944;2023-02-03T01:16:26;5.75;;;2.75;;
63534;SDS011;55128;50.230;18.944;2023-02-03T01:21:27;5.53;;;3.20;;
63534;SDS011;55128;50.230;18.944;2023-02-03T01:26:28;5.93;;;3.03;;
63534;SDS011;55128;50.230;18.944;2023-02-03T01:31:29;6.47;;;3.10;;
63534;SDS011;55128;50.230;18.944;2023-02-03T01:36:34;7.10;;;3.78;;
63534;SDS011;55128;50.230;18.944;2023-02-03T01:41:35;8.32;;;4.18;;
63534;SDS011;55128;50.230;18.944;2023-02-03T01:46:38;8.60;;;3.67;;
63534;SDS011;55128;50.230;18.944;2023-02-03T01:51:45;8.02;;;3.90;;
63534;SDS011;55128;50.230;18.944;2023-02-03T01:56:47;7.38;;;4.05;;
63534;SDS011;55128;50.230;18.944;2023-02-03T02:01:52;6.80;;;3.72;;
63534;SDS011;55128;50.230;18.944;2023-02-03T02:06:55;9.57;;;3.88;;
63534;SDS011;55128;50.230;18.944;2023-02-03T02:11:56;8.18;;;3.85;;
63534;SDS011;55128;50.230;18.944;2023-02-03T02:16:58;7.57;;;3.72;;
63534;SDS011;55128;50.230;18.944;2023-02-03T02:43:27;6.60;;;3.83;;
63534;SDS011;55128;50.230;18.944;2023-02-03T02:48:35;9.00;;;4.28;;
63534;SDS011;55128;50.230;18.944;2023-02-03T02:53:47;9.80;;;4.18;;
63534;SDS011;55128;50.230;18.944;2023-02-03T02:58:53;10.25;;;4.43;;
63534;SDS011;55128;50.230;18.944;2023-02-03T03:03:57;7.25;;;3.85;;
63534;SDS011;55128;50.230;18.944;2023-02-03T03:09:10;9.63;;;4.70;;
63534;SDS011;55128;50.230;18.944;2023-02-03T03:14:16;10.30;;;4.30;;
63534;SDS011;55128;50.230;18.944;2023-02-03T03:19:21;11.15;;;4.25;;
63534;SDS011;55128;50.230;18.944;2023-02-03T03:24:30;7.57;;;4.13;;
63534;SDS011;55128;50.230;18.944;2023-02-03T03:29:44;9.52;;;4.50;;
63534;SDS011;55128;50.230;18.944;2023-02-03T03:34:50;5.97;;;4.10;;
63534;SDS011;55128;50.230;18.944;2023-02-03T03:39:58;7.75;;;4.45;;
63534;SDS011;55128;50.230;18.944;2023-02-03T03:45:12;8.57;;;4.95;;
63534;SDS011;55128;50.230;18.944;2023-02-03T03:50:24;9.85;;;5.55;;
63534;SDS011;55128;50.230;18.944;2023-02-03T03:55:28;10.73;;;5.00;;
63534;SDS011;55128;50.230;18.944;2023-02-03T04:00:32;10.73;;;4.80;;
63534;SDS011;55128;50.230;18.944;2023-02-03T04:05:34;12.38;;;5.40;;
63534;SDS011;55128;50.230;18.944;2023-02-03T04:10:38;9.60;;;4.72;;
63534;SDS011;55128;50.230;18.944;2023-02-03T04:15:41;15.50;;;7.20;;
63534;SDS011;55128;50.230;18.944;2023-02-03T04:20:41;8.97;;;4.37;;
63534;SDS011;55128;50.230;18.944;2023-02-03T04:25:42;8.60;;;4.72;;
63534;SDS011;55128;50.230;18.944;2023-02-03T04:30:42;13.03;;;6.13;;
63534;SDS011;55128;50.230;18.944;2023-02-03T04:35:42;19.02;;;7.18;;
63534;SDS011;55128;50.230;18.944;2023-02-03T04:40:43;18.88;;;6.80;;
63534;SDS011;55128;50.230;18.944;2023-02-03T04:45:44;18.15;;;6.40;;
63534;SDS011;55128;50.230;18.944;2023-02-03T04:50:44;10.15;;;5.00;;
63534;SDS011;55128;50.230;18.944;2023-02-03T04:55:46;11.27;;;4.20;;
63534;SDS011;55128;50.230;18.944;2023-02-03T05:00:47;11.27;;;4.47;;
63534;SDS011;55128;50.230;18.944;2023-02-03T05:05:48;10.00;;;4.60;;
63534;SDS011;55128;50.230;18.944;2023-02-03T05:10:49;25.70;;;7.93;;
63534;SDS011;55128;50.230;18.944;2023-02-03T05:15:49;20.90;;;6.65;;
63534;SDS011;55128;50.230;18.944;2023-02-03T05:20:50;14.30;;;6.20;;
63534;SDS011;55128;50.230;18.944;2023-02-03T05:25:50;18.03;;;6.20;;
63534;SDS011;55128;50.230;18.944;2023-02-03T05:30:50;11.15;;;6.43;;
63534;SDS011;55128;50.230;18.944;2023-02-03T05:35:51;15.63;;;7.75;;
63534;SDS011;55128;50.230;18.944;2023-02-03T05:40:51;16.70;;;8.23;;
63534;SDS011;55128;50.230;18.944;2023-02-03T05:46:15;22.58;;;9.15;;
63534;SDS011;55128;50.230;18.944;2023-02-03T05:51:15;19.00;;;10.18;;
63534;SDS011;55128;50.230;18.944;2023-02-03T05:56:16;17.55;;;10.52;;
63534;SDS011;55128;50.230;18.944;2023-02-03T06:01:16;19.90;;;10.98;;
63534;SDS011;55128;50.230;18.944;2023-02-03T06:06:18;22.15;;;11.55;;
63534;SDS011;55128;50.230;18.944;2023-02-03T06:11:18;25.75;;;11.98;;
63534;SDS011;55128;50.230;18.944;2023-02-03T06:16:19;32.57;;;13.43;;
63534;SDS011;55128;50.230;18.944;2023-02-03T06:21:19;25.85;;;10.48;;
63534;SDS011;55128;50.230;18.944;2023-02-03T06:26:21;18.65;;;8.85;;
63534;SDS011;55128;50.230;18.944;2023-02-03T06:31:21;24.15;;;8.95;;
63534;SDS011;55128;50.230;18.944;2023-02-03T06:36:22;18.98;;;8.57;;
63534;SDS011;55128;50.230;18.944;2023-02-03T06:41:22;16.75;;;8.00;;
63534;SDS011;55128;50.230;18.944;2023-02-03T06:46:28;16.05;;;8.23;;
63534;SDS011;55128;50.230;18.944;2023-02-03T06:51:29;23.98;;;9.73;;
63534;SDS011;55128;50.230;18.944;2023-02-03T06:56:29;19.10;;;7.57;;
63534;SDS011;55128;50.230;18.944;2023-02-03T07:01:30;15.95;;;7.65;;
63534;SDS011;55128;50.230;18.944;2023-02-03T07:06:30;11.70;;;7.00;;
63534;SDS011;55128;50.230;18.944;2023-02-03T07:11:33;10.95;;;6.70;;
63534;SDS011;55128;50.230;18.944;2023-02-03T07:16:33;13.45;;;7.43;;
63534;SDS011;55128;50.230;18.944;2023-02-03T07:21:35;14.52;;;6.70;;
63534;SDS011;55128;50.230;18.944;2023-02-03T07:26:35;13.00;;;6.25;;
63534;SDS011;55128;50.230;18.944;2023-02-03T07:31:36;16.38;;;7.07;;
63534;SDS011;55128;50.230;18.944;2023-02-03T07:36:37;14.57;;;6.75;;
63534;SDS011;55128;50.230;18.944;2023-02-03T07:41:39;11.50;;;6.00;;
63534;SDS011;55128;50.230;18.944;2023-02-03T07:47:05;13.63;;;6.85;;
63534;SDS011;55128;50.230;18.944;2023-02-03T07:52:08;17.08;;;7.10;;
63534;SDS011;55128;50.230;18.944;2023-02-03T07:57:37;14.68;;;6.78;;
63534;SDS011;55128;50.230;18.944;2023-02-03T08:02:44;17.42;;;6.30;;
63534;SDS011;55128;50.230;18.944;2023-02-03T08:07:49;17.77;;;5.95;;
63534;SDS011;55128;50.230;18.944;2023-02-03T08:12:55;16.17;;;8.60;;
63534;SDS011;55128;50.230;18.944;2023-02-03T08:18:58;10.07;;;5.47;;
63534;SDS011;55128;50.230;18.944;2023-02-03T08:24:12;9.15;;;5.93;;
63534;SDS011;55128;50.230;18.944;2023-02-03T08:29:24;11.57;;;5.32;;
63534;SDS011;55128;50.230;18.944;2023-02-03T08:34:25;8.70;;;4.60;;
63534;SDS011;55128;50.230;18.944;2023-02-03T08:39:26;11.18;;;5.18;;
63534;SDS011;55128;50.230;18.944;2023-02-03T08:44:27;13.20;;;5.75;;
63534;SDS011;55128;50.230;18.944;2023-02-03T08:49:43;13.05;;;5.78;;
63534;SDS011;55128;50.230;18.944;2023-02-03T08:55:09;11.20;;;6.75;;
63534;SDS011;55128;50.230;18.944;2023-02-03T09:05:29;17.02;;;8.57;;
63534;SDS011;55128;50.230;18.944;2023-02-03T09:10:35;13.40;;;7.28;;
63534;SDS011;55128;50.230;18.944;2023-02-03T09:15:36;13.82;;;7.55;;
63534;SDS011;55128;50.230;18.944;2023-02-03T09:26:11;17.88;;;9.35;;
63534;SDS011;55128;50.230;18.944;2023-02-03T09:32:13;16.65;;;8.52;;
63534;SDS011;55128;50.230;18.944;2023-02-03T09:37:13;14.32;;;8.95;;
63534;SDS011;55128;50.230;18.944;2023-02-03T09:42:28;15.57;;;9.00;;
63534;SDS011;55128;50.230;18.944;2023-02-03T09:47:57;19.67;;;8.93;;
63534;SDS011;55128;50.230;18.944;2023-02-03T09:53:03;15.23;;;8.43;;
63534;SDS011;55128;50.230;18.944;2023-02-03T09:58:15;14.68;;;7.93;;
63534;SDS011;55128;50.230;18.944;2023-02-03T10:03:34;14.52;;;7.70;;
63534;SDS011;55128;50.230;18.944;2023-02-03T10:19:06;15.50;;;9.10;;
63534;SDS011;55128;50.230;18.944;2023-02-03T10:24:13;12.70;;;6.78;;
63534;SDS011;55128;50.230;18.944;2023-02-03T10:29:19;10.90;;;6.53;;
63534;SDS011;55128;50.230;18.944;2023-02-03T10:34:25;11.50;;;6.78;;
63534;SDS011;55128;50.230;18.944;2023-02-03T10:39:44;9.63;;;6.60;;
63534;SDS011;55128;50.230;18.944;2023-02-03T10:44:57;9.20;;;6.13;;
63534;SDS011;55128;50.230;18.944;2023-02-03T10:49:59;9.27;;;5.60;;
63534;SDS011;55128;50.230;18.944;2023-02-03T10:55:05;12.40;;;6.75;;
63534;SDS011;55128;50.230;18.944;2023-02-03T11:00:29;9.35;;;6.13;;
63534;SDS011;55128;50.230;18.944;2023-02-03T11:05:31;10.20;;;6.15;;
63534;SDS011;55128;50.230;18.944;2023-02-03T11:10:34;9.57;;;6.60;;
63534;SDS011;55128;50.230;18.944;2023-02-03T11:15:42;10.93;;;6.68;;
63534;SDS011;55128;50.230;18.944;2023-02-03T11:20:44;10.25;;;7.38;;
63534;SDS011;55128;50.230;18.944;2023-02-03T11:25:44;9.77;;;6.43;;
63534;SDS011;55128;50.230;18.944;2023-02-03T11:30:45;8.77;;;5.88;;
63534;SDS011;55128;50.230;18.944;2023-02-03T11:35:56;11.32;;;6.72;;
63534;SDS011;55128;50.230;18.944;2023-02-03T11:41:01;10.85;;;6.82;;
63534;SDS011;55128;50.230;18.944;2023-02-03T12:12:33;14.18;;;9.18;;
63534;SDS011;55128;50.230;18.944;2023-02-03T12:18:05;15.00;;;8.70;;
63534;SDS011;55128;50.230;18.944;2023-02-03T12:33:33;13.13;;;7.17;;
63534;SDS011;55128;50.230;18.944;2023-02-03T12:44:24;9.00;;;6.30;;
63534;SDS011;55128;50.230;18.944;2023-02-03T12:49:44;10.18;;;6.10;;
63534;SDS011;55128;50.230;18.944;2023-02-03T12:54:49;9.20;;;5.30;;
63534;SDS011;55128;50.230;18.944;2023-02-03T13:00:03;7.70;;;4.85;;
63534;SDS011;55128;50.230;18.944;2023-02-03T13:05:18;8.45;;;5.32;;
63534;SDS011;55128;50.230;18.944;2023-02-03T13:10:27;8.45;;;5.03;;
63534;SDS011;55128;50.230;18.944;2023-02-03T13:15:36;8.77;;;4.63;;
63534;SDS011;55128;50.230;18.944;2023-02-03T13:21:02;8.35;;;5.30;;
63534;SDS011;55128;50.230;18.944;2023-02-03T13:32:06;9.02;;;4.93;;
63534;SDS011;55128;50.230;18.944;2023-02-03T13:42:52;9.27;;;5.30;;
63534;SDS011;55128;50.230;18.944;2023-02-03T13:48:09;10.38;;;5.68;;
63534;SDS011;55128;50.230;18.944;2023-02-03T13:58:24;9.52;;;5.30;;
63534;SDS011;55128;50.230;18.944;2023-02-03T14:13:27;5.97;;;4.43;;
63534;SDS011;55128;50.230;18.944;2023-02-03T14:18:32;7.57;;;4.03;;
63534;SDS011;55128;50.230;18.944;2023-02-03T14:28:45;6.43;;;3.90;;
63534;SDS011;55128;50.230;18.944;2023-02-03T14:38:51;5.88;;;3.80;;
63534;SDS011;55128;50.230;18.944;2023-02-03T14:43:59;6.18;;;4.10;;
63534;SDS011;55128;50.230;18.944;2023-02-03T14:54:29;8.38;;;5.50;;
63534;SDS011;55128;50.230;18.944;2023-02-03T15:00:01;9.07;;;5.63;;
63534;SDS011;55128;50.230;18.944;2023-02-03T15:15:37;9.25;;;6.22;;
63534;SDS011;55128;50.230;18.944;2023-02-03T15:20:39;11.07;;;7.25;;
63534;SDS011;55128;50.230;18.944;2023-02-03T15:25:43;11.32;;;8.35;;
63534;SDS011;55128;50.230;18.944;2023-02-03T15:30:44;15.13;;;9.55;;
63534;SDS011;55128;50.230;18.944;2023-02-03T15:35:49;14.15;;;8.32;;
63534;SDS011;55128;50.230;18.944;2023-02-03T15:40:57;17.60;;;8.70;;
63534;SDS011;55128;50.230;18.944;2023-02-03T15:46:21;15.48;;;9.85;;
63534;SDS011;55128;50.230;18.944;2023-02-03T15:51:30;15.88;;;9.38;;
63534;SDS011;55128;50.230;18.944;2023-02-03T15:56:34;13.85;;;8.50;;
63534;SDS011;55128;50.230;18.944;2023-02-03T16:01:40;20.02;;;10.38;;
63534;SDS011;55128;50.230;18.944;2023-02-03T16:06:43;17.60;;;9.90;;
63534;SDS011;55128;50.230;18.944;2023-02-03T16:12:00;15.48;;;9.70;;
63534;SDS011;55128;50.230;18.944;2023-02-03T16:17:37;15.93;;;8.30;;
63534;SDS011;55128;50.230;18.944;2023-02-03T16:28:10;13.27;;;7.95;;
63534;SDS011;55128;50.230;18.944;2023-02-03T16:33:37;10.10;;;6.45;;
63534;SDS011;55128;50.230;18.944;2023-02-03T16:38:56;13.77;;;5.75;;
63534;SDS011;55128;50.230;18.944;2023-02-03T16:44:18;11.13;;;5.35;;
63534;SDS011;55128;50.230;18.944;2023-02-03T16:49:37;10.57;;;5.15;;
63534;SDS011;55128;50.230;18.944;2023-02-03T16:54:56;10.73;;;5.28;;
63534;SDS011;55128;50.230;18.944;2023-02-03T16:59:57;13.85;;;5.85;;
63534;SDS011;55128;50.230;18.944;2023-02-03T17:04:58;10.95;;;5.07;;
63534;SDS011;55128;50.230;18.944;2023-02-03T17:09:59;12.65;;;5.68;;
63534;SDS011;55128;50.230;18.944;2023-02-03T17:14:59;12.48;;;4.90;;
63534;SDS011;55128;50.230;18.944;2023-02-03T17:19:59;12.98;;;4.13;;
63534;SDS011;55128;50.230;18.944;2023-02-03T17:25:00;11.02;;;4.40;;
63534;SDS011;55128;50.230;18.944;2023-02-03T17:30:02;15.15;;;4.43;;
63534;SDS011;55128;50.230;18.944;2023-02-03T17:35:03;13.00;;;5.25;;
63534;SDS011;55128;50.230;18.944;2023-02-03T17:40:03;12.23;;;4.55;;
63534;SDS011;55128;50.230;18.944;2023-02-03T17:45:04;11.45;;;4.97;;
63534;SDS011;55128;50.230;18.944;2023-02-03T17:50:05;11.63;;;5.35;;
63534;SDS011;55128;50.230;18.944;2023-02-03T17:55:05;14.15;;;5.05;;
63534;SDS011;55128;50.230;18.944;2023-02-03T18:00:06;10.55;;;4.72;;
63534;SDS011;55128;50.230;18.944;2023-02-03T18:05:08;14.77;;;6.18;;
63534;SDS011;55128;50.230;18.944;2023-02-03T18:10:09;11.70;;;5.47;;
63534;SDS011;55128;50.230;18.944;2023-02-03T18:15:11;13.27;;;6.63;;
63534;SDS011;55128;50.230;18.944;2023-02-03T18:20:11;16.73;;;5.88;;
63534;SDS011;55128;50.230;18.944;2023-02-03T18:25:13;21.40;;;7.20;;
63534;SDS011;55128;50.230;18.944;2023-02-03T18:30:16;17.77;;;6.68;;
63534;SDS011;55128;50.230;18.944;2023-02-03T18:35:17;15.73;;;7.03;;
63534;SDS011;55128;50.230;18.944;2023-02-03T18:40:18;15.98;;;5.75;;
63534;SDS011;55128;50.230;18.944;2023-02-03T18:45:18;13.13;;;5.90;;
63534;SDS011;55128;50.230;18.944;2023-02-03T18:50:19;17.70;;;5.10;;
63534;SDS011;55128;50.230;18.944;2023-02-03T18:55:19;12.95;;;4.78;;
63534;SDS011;55128;50.230;18.944;2023-02-03T19:00:20;15.68;;;4.70;;
63534;SDS011;55128;50.230;18.944;2023-02-03T19:05:20;12.38;;;4.75;;
63534;SDS011;55128;50.230;18.944;2023-02-03T19:10:21;12.35;;;5.55;;
63534;SDS011;55128;50.230;18.944;2023-02-03T19:15:21;13.15;;;4.13;;
63534;SDS011;55128;50.230;18.944;2023-02-03T19:20:21;11.70;;;4.23;;
63534;SDS011;55128;50.230;18.944;2023-02-03T19:25:22;11.30;;;4.63;;
63534;SDS011;55128;50.230;18.944;2023-02-03T19:30:22;11.20;;;3.95;;
63534;SDS011;55128;50.230;18.944;2023-02-03T19:35:22;11.05;;;4.10;;
63534;SDS011;55128;50.230;18.944;2023-02-03T19:40:23;12.50;;;4.25;;
63534;SDS011;55128;50.230;18.944;2023-02-03T19:45:24;12.30;;;3.77;;
63534;SDS011;55128;50.230;18.944;2023-02-03T19:50:24;13.95;;;3.90;;
63534;SDS011;55128;50.230;18.944;2023-02-03T19:55:24;14.02;;;4.68;;
63534;SDS011;55128;50.230;18.944;2023-02-03T20:00:29;13.07;;;5.05;;
63534;SDS011;55128;50.230;18.944;2023-02-03T20:05:29;15.13;;;5.55;;
63534;SDS011;55128;50.230;18.944;2023-02-03T20:10:30;15.95;;;4.80;;
63534;SDS011;55128;50.230;18.944;2023-02-03T20:15:31;20.83;;;6.07;;
63534;SDS011;55128;50.230;18.944;2023-02-03T20:20:32;16.97;;;5.23;;
63534;SDS011;55128;50.230;18.944;2023-02-03T20:25:33;15.48;;;5.80;;
63534;SDS011;55128;50.230;18.944;2023-02-03T20:30:33;20.67;;;5.70;;
63534;SDS011;55128;50.230;18.944;2023-02-03T20:35:34;16.67;;;5.45;;
63534;SDS011;55128;50.230;18.944;2023-02-03T20:40:34;17.83;;;5.45;;
63534;SDS011;55128;50.230;18.944;2023-02-03T20:45:34;16.25;;;5.15;;
63534;SDS011;55128;50.230;18.944;2023-02-03T20:50:36;16.75;;;5.40;;
63534;SDS011;55128;50.230;18.944;2023-02-03T20:55:37;20.10;;;5.70;;
63534;SDS011;55128;50.230;18.944;2023-02-03T21:00:37;16.13;;;5.60;;
63534;SDS011;55128;50.230;18.944;2023-02-03T21:05:39;17.30;;;5.10;;
63534;SDS011;55128;50.230;18.944;2023-02-03T21:10:41;23.08;;;5.85;;
63534;SDS011;55128;50.230;18.944;2023-02-03T21:15:42;17.30;;;4.60;;
63534;SDS011;55128;50.230;18.944;2023-02-03T21:20:43;16.13;;;5.47;;
63534;SDS011;55128;50.230;18.944;2023-02-03T21:25:43;20.63;;;6.20;;
63534;SDS011;55128;50.230;18.944;2023-02-03T21:30:44;25.58;;;6.97;;
63534;SDS011;55128;50.230;18.944;2023-02-03T21:35:44;17.63;;;6.37;;
63534;SDS011;55128;50.230;18.944;2023-02-03T21:40:45;15.60;;;5.57;;
63534;SDS011;55128;50.230;18.944;2023-02-03T21:45:45;18.20;;;5.10;;
63534;SDS011;55128;50.230;18.944;2023-02-03T21:50:47;14.82;;;5.50;;
63534;SDS011;55128;50.230;18.944;2023-02-03T21:55:48;14.57;;;5.17;;
63534;SDS011;55128;50.230;18.944;2023-02-03T22:00:48;17.90;;;5.28;;
63534;SDS011;55128;50.230;18.944;2023-02-03T22:05:50;13.93;;;4.88;;
63534;SDS011;55128;50.230;18.944;2023-02-03T22:10:50;16.27;;;4.90;;
63534;SDS011;55128;50.230;18.944;2023-02-03T22:15:51;16.35;;;4.70;;
63534;SDS011;55128;50.230;18.944;2023-02-03T22:20:51;14.07;;;3.97;;
63534;SDS011;55128;50.230;18.944;2023-02-03T22:25:52;17.10;;;4.55;;
63534;SDS011;55128;50.230;18.944;2023-02-03T22:30:52;13.07;;;3.80;;
63534;SDS011;55128;50.230;18.944;2023-02-03T22:35:53;10.53;;;3.80;;
63534;SDS011;55128;50.230;18.944;2023-02-03T22:40:53;14.83;;;4.20;;
63534;SDS011;55128;50.230;18.944;2023-02-03T22:45:53;12.23;;;3.90;;
63534;SDS011;55128;50.230;18.944;2023-02-03T22:50:54;11.82;;;3.85;;
63534;SDS011;55128;50.230;18.944;2023-02-03T22:55:55;14.10;;;4.40;;
63534;SDS011;55128;50.230;18.944;2023-02-03T23:00:55;13.20;;;4.05;;
63534;SDS011;55128;50.230;18.944;2023-02-03T23:05:55;10.63;;;2.92;;
63534;SDS011;55128;50.230;18.944;2023-02-03T23:10:56;9.65;;;3.53;;
63534;SDS011;55128;50.230;18.944;2023-02-03T23:15:56;7.78;;;3.30;;
63534;SDS011;55128;50.230;18.944;2023-02-03T23:20:57;9.90;;;3.70;;
63534;SDS011;55128;50.230;18.944;2023-02-03T23:25:57;10.20;;;5.00;;
63534;SDS011;55128;50.230;18.944;2023-02-03T23:30:57;10.57;;;4.55;;
63534;SDS011;55128;50.230;18.944;2023-02-03T23:35:58;13.50;;;5.40;;
63534;SDS011;55128;50.230;18.944;2023-02-03T23:40:58;9.85;;;5.25;;
63534;SDS011;55128;50.230;18.944;2023-02-03T23:45:58;11.02;;;4.53;;
63534;SDS011;55128;50.230;18.944;2023-02-03T23:50:58;10.87;;;5.03;;
63534;SDS011;55128;50.230;18.944;2023-02-03T23:55:59;12.07;;;5.27;;
